createdAt,value
2017-05-11T00:00:24.160Z,0
2017-05-11T00:01:23.802Z,0
2017-05-11T00:02:24.167Z,0
2017-05-11T00:03:24.174Z,0
2017-05-11T00:04:23.868Z,0
2017-05-11T00:05:24.236Z,0
2017-05-11T00:06:23.828Z,0
2017-05-11T00:07:24.151Z,0
2017-05-11T00:08:24.156Z,0
2017-05-11T00:09:24.171Z,0
2017-05-11T00:10:24.216Z,0
2017-05-11T00:11:23.915Z,0
2017-05-11T00:12:23.873Z,0
2017-05-11T00:13:24.195Z,0
2017-05-11T00:14:24.244Z,0
2017-05-11T00:15:24.205Z,0
2017-05-11T00:16:24.208Z,0
2017-05-11T00:17:23.900Z,0
2017-05-11T00:18:23.913Z,0
2017-05-11T00:19:24.226Z,0
2017-05-11T00:20:24.236Z,0
2017-05-11T00:21:24.240Z,0
2017-05-11T00:22:24.246Z,0
2017-05-11T00:23:23.942Z,0
2017-05-11T00:24:24.315Z,0
2017-05-11T00:25:24.314Z,0
2017-05-11T00:26:24.313Z,0
2017-05-11T00:27:23.966Z,0
2017-05-11T00:28:24.338Z,0
2017-05-11T00:29:24.346Z,0
2017-05-11T00:30:23.989Z,0
2017-05-11T00:31:23.733Z,0
2017-05-11T00:32:24.319Z,0
2017-05-11T00:33:24.325Z,0
2017-05-11T00:34:24.011Z,0
2017-05-11T00:35:24.023Z,0
2017-05-11T00:36:24.336Z,0
2017-05-11T00:37:24.397Z,0
2017-05-11T00:38:24.352Z,0
2017-05-11T00:39:24.365Z,0
2017-05-11T00:40:24.410Z,0
2017-05-11T00:41:24.367Z,0
2017-05-11T00:42:24.065Z,0
2017-05-11T00:43:24.382Z,0
2017-05-11T00:44:23.766Z,0
2017-05-11T00:45:23.775Z,0
2017-05-11T00:46:24.401Z,0
2017-05-11T00:47:24.454Z,0
2017-05-11T00:48:24.154Z,0
2017-05-11T00:49:24.425Z,0
2017-05-11T00:50:24.113Z,0
2017-05-11T00:51:24.171Z,0
2017-05-11T00:52:24.492Z,0
2017-05-11T00:53:24.451Z,0
2017-05-11T00:54:24.455Z,0
2017-05-11T00:55:24.149Z,0
2017-05-11T00:56:24.463Z,0
2017-05-11T00:57:24.469Z,0
2017-05-11T00:58:24.528Z,0
2017-05-11T00:59:24.169Z,0
2017-05-11T01:00:24.501Z,0
2017-05-11T01:01:24.500Z,0
2017-05-11T01:02:24.195Z,0
2017-05-11T01:03:24.206Z,0
2017-05-11T01:04:24.257Z,0
2017-05-11T01:05:24.528Z,0
2017-05-11T01:06:23.631Z,0
2017-05-11T01:07:24.225Z,0
2017-05-11T01:08:24.600Z,0
2017-05-11T01:09:24.548Z,0
2017-05-11T01:10:24.562Z,0
2017-05-11T01:11:24.251Z,0
2017-05-11T01:12:24.297Z,0
2017-05-11T01:13:24.263Z,0
2017-05-11T01:14:24.587Z,0
2017-05-11T01:15:23.962Z,0
2017-05-11T01:16:24.341Z,0
2017-05-11T01:17:24.070Z,0
2017-05-11T01:18:24.348Z,0
2017-05-11T01:19:24.665Z,0
2017-05-11T01:20:24.619Z,0
2017-05-11T01:21:24.725Z,0
2017-05-11T01:22:24.631Z,0
2017-05-11T01:23:24.379Z,0
2017-05-11T01:24:24.645Z,0
2017-05-11T01:25:24.646Z,0
2017-05-11T01:26:24.656Z,0
2017-05-11T01:27:24.406Z,0
2017-05-11T01:28:24.362Z,0
2017-05-11T01:29:24.674Z,0
2017-05-11T01:30:24.370Z,0
2017-05-11T01:31:24.686Z,0
2017-05-11T01:32:24.693Z,0
2017-05-11T01:33:24.392Z,0
2017-05-11T01:34:24.408Z,0
2017-05-11T01:35:24.766Z,0
2017-05-11T01:36:24.098Z,0
2017-05-11T01:37:24.418Z,0
2017-05-11T01:38:24.791Z,0
2017-05-11T01:39:24.785Z,0
2017-05-11T01:40:24.486Z,0
2017-05-11T01:41:24.751Z,0
2017-05-11T01:42:24.766Z,0
2017-05-11T01:43:24.770Z,0
2017-05-11T01:44:24.465Z,0
2017-05-11T01:45:24.779Z,0
2017-05-11T01:46:24.777Z,0
2017-05-11T01:47:24.787Z,0
2017-05-11T01:48:24.541Z,0
2017-05-11T01:49:24.802Z,0
2017-05-11T01:50:24.813Z,0
2017-05-11T01:51:24.191Z,0
2017-05-11T01:52:24.869Z,0
2017-05-11T01:53:24.832Z,0
2017-05-11T01:54:24.527Z,0
2017-05-11T01:55:24.535Z,0
2017-05-11T01:56:24.848Z,0
2017-05-11T01:57:24.853Z,0
2017-05-11T01:58:24.612Z,0
2017-05-11T01:59:24.557Z,0
2017-05-11T02:00:24.929Z,0
2017-05-11T02:01:24.579Z,0
2017-05-11T02:02:24.885Z,0
2017-05-11T02:03:24.958Z,0
2017-05-11T02:04:24.946Z,0
2017-05-11T02:05:24.600Z,0
2017-05-11T02:06:24.910Z,0
2017-05-11T02:07:24.602Z,0
2017-05-11T02:08:24.610Z,0
2017-05-11T02:09:24.984Z,0
2017-05-11T02:10:24.940Z,0
2017-05-11T02:11:24.633Z,0
2017-05-11T02:12:24.946Z,0
2017-05-11T02:13:24.960Z,0
2017-05-11T02:14:25.010Z,0
2017-05-11T02:18:55.237Z,0
2017-05-11T02:19:11.479Z,0
2017-05-11T02:20:11.485Z,0
2017-05-11T02:21:11.497Z,0
2017-05-11T02:22:11.233Z,0
2017-05-11T02:23:11.507Z,0
2017-05-11T02:24:11.253Z,0
2017-05-11T02:25:11.516Z,0
2017-05-11T02:26:11.210Z,0
2017-05-11T02:27:11.221Z,0
2017-05-11T02:28:11.593Z,0
2017-05-11T02:29:11.235Z,0
2017-05-11T02:30:11.242Z,0
2017-05-11T02:31:11.560Z,0
2017-05-11T02:32:11.611Z,0
2017-05-11T02:33:11.568Z,0
2017-05-11T02:34:11.576Z,0
2017-05-11T02:35:10.964Z,0
2017-05-11T02:36:11.328Z,0
2017-05-11T02:37:11.607Z,0
2017-05-11T02:38:11.343Z,0
2017-05-11T02:39:11.609Z,0
2017-05-11T02:40:11.358Z,0
2017-05-11T02:41:11.618Z,0
2017-05-11T02:42:11.316Z,0
2017-05-11T02:43:11.638Z,0
2017-05-11T02:44:11.018Z,0
2017-05-11T02:45:11.335Z,0
2017-05-11T02:46:11.340Z,0
2017-05-11T02:47:11.658Z,0
2017-05-11T02:48:11.402Z,0
2017-05-11T02:49:11.364Z,0
2017-05-11T02:50:11.419Z,0
2017-05-11T02:51:11.686Z,0
2017-05-11T02:52:11.696Z,0
2017-05-11T02:53:11.696Z,0
2017-05-11T02:54:11.715Z,0
2017-05-11T02:55:11.710Z,0
2017-05-11T02:56:11.401Z,0
2017-05-11T02:57:11.725Z,0
2017-05-11T02:58:11.736Z,0
2017-05-11T02:59:11.429Z,0
2017-05-11T03:00:11.742Z,0
2017-05-11T03:01:11.437Z,0
2017-05-11T03:02:11.765Z,0
2017-05-11T03:03:11.513Z,0
2017-05-11T03:04:11.770Z,0
2017-05-11T03:05:11.824Z,0
2017-05-11T03:06:10.847Z,0
2017-05-11T03:07:11.789Z,0
2017-05-11T03:08:11.489Z,0
2017-05-11T03:09:11.179Z,0
2017-05-11T03:10:11.857Z,0
2017-05-11T03:11:11.811Z,0
2017-05-11T03:12:12.510Z,0
2017-05-11T03:13:11.834Z,0
2017-05-11T03:14:11.210Z,0
2017-05-11T03:15:11.882Z,0
2017-05-11T03:16:11.583Z,0
2017-05-11T03:17:11.851Z,0
2017-05-11T03:18:11.858Z,0
2017-05-11T03:19:11.561Z,0
2017-05-11T03:20:11.251Z,4
2017-05-11T03:21:11.927Z,4
2017-05-11T03:22:11.935Z,4
2017-05-11T03:23:11.574Z,0
2017-05-11T03:24:11.904Z,0
2017-05-11T03:25:11.691Z,4
2017-05-11T03:26:11.286Z,4
2017-05-11T03:27:11.918Z,4
2017-05-11T03:28:11.297Z,4
2017-05-11T03:29:11.994Z,4
2017-05-11T03:30:11.626Z,8
2017-05-11T03:31:11.634Z,4
2017-05-11T03:32:11.955Z,8
2017-05-11T03:33:12.001Z,8
2017-05-11T03:34:11.335Z,8
2017-05-11T03:35:11.673Z,8
2017-05-11T03:36:12.035Z,12
2017-05-11T03:37:11.977Z,12
2017-05-11T03:38:11.983Z,16
2017-05-11T03:39:12.041Z,16
2017-05-11T03:40:11.700Z,16
2017-05-11T03:41:11.752Z,16
2017-05-11T03:42:12.075Z,20
2017-05-11T03:43:12.034Z,24
2017-05-11T03:44:12.035Z,24
2017-05-11T03:45:12.025Z,24
2017-05-11T03:46:11.756Z,28
2017-05-11T03:47:11.524Z,32
2017-05-11T03:48:12.046Z,36
2017-05-11T03:49:11.432Z,40
2017-05-11T03:50:12.069Z,40
2017-05-11T03:51:12.065Z,44
2017-05-11T03:52:12.080Z,52
2017-05-11T03:53:12.128Z,52
2017-05-11T03:54:12.133Z,60
2017-05-11T03:55:12.131Z,64
2017-05-11T03:56:12.102Z,68
2017-05-11T03:57:11.796Z,76
2017-05-11T03:58:11.857Z,80
2017-05-11T03:59:11.863Z,88
2017-05-11T04:00:12.123Z,92
2017-05-11T04:01:12.177Z,100
2017-05-11T04:02:12.138Z,108
2017-05-11T04:03:12.150Z,116
2017-05-11T04:04:11.838Z,120
2017-05-11T04:05:12.168Z,128
2017-05-11T04:06:12.159Z,136
2017-05-11T04:07:12.172Z,144
2017-05-11T04:08:11.553Z,152
2017-05-11T04:09:12.230Z,164
2017-05-11T04:10:12.259Z,168
2017-05-11T04:11:11.935Z,176
2017-05-11T04:12:11.902Z,184
2017-05-11T04:13:11.912Z,192
2017-05-11T04:14:11.597Z,200
2017-05-11T04:15:12.219Z,208
2017-05-11T04:16:11.976Z,216
2017-05-11T04:17:12.231Z,224
2017-05-11T04:18:12.241Z,232
2017-05-11T04:19:12.307Z,240
2017-05-11T04:20:12.307Z,248
2017-05-11T04:21:12.262Z,252
2017-05-11T04:22:11.699Z,260
2017-05-11T04:23:12.331Z,272
2017-05-11T04:24:11.756Z,280
2017-05-11T04:25:12.288Z,292
2017-05-11T04:26:12.028Z,304
2017-05-11T04:27:11.991Z,316
2017-05-11T04:28:12.306Z,336
2017-05-11T04:29:12.363Z,368
2017-05-11T04:30:12.003Z,412
2017-05-11T04:31:12.322Z,456
2017-05-11T04:32:11.759Z,520
2017-05-11T04:33:12.031Z,616
2017-05-11T04:34:12.352Z,672
2017-05-11T04:35:12.347Z,676
2017-05-11T04:36:12.355Z,700
2017-05-11T04:37:12.365Z,712
2017-05-11T04:38:12.065Z,684
2017-05-11T04:39:12.387Z,732
2017-05-11T04:40:11.762Z,796
2017-05-11T04:41:11.816Z,816
2017-05-11T04:42:12.085Z,844
2017-05-11T04:43:12.409Z,976
2017-05-11T04:44:12.419Z,1068
2017-05-11T04:45:12.126Z,1196
2017-05-11T04:46:12.475Z,1316
2017-05-11T04:47:12.170Z,1456
2017-05-11T04:48:12.433Z,1460
2017-05-11T04:49:12.456Z,1500
2017-05-11T04:50:12.142Z,1556
2017-05-11T04:51:12.461Z,1664
2017-05-11T04:52:12.162Z,1828
2017-05-11T04:53:12.171Z,1940
2017-05-11T04:54:12.482Z,2016
2017-05-11T04:55:12.499Z,1960
2017-05-11T04:56:12.496Z,2036
2017-05-11T04:57:12.509Z,1936
2017-05-11T04:58:12.206Z,1960
2017-05-11T04:59:12.574Z,2076
2017-05-11T05:00:12.272Z,1788
2017-05-11T05:01:12.535Z,1556
2017-05-11T05:02:12.238Z,2320
2017-05-11T05:03:12.557Z,2568
2017-05-11T05:04:12.302Z,2584
2017-05-11T05:05:12.307Z,2652
2017-05-11T05:06:12.271Z,2684
2017-05-11T05:07:12.586Z,2748
2017-05-11T05:08:12.292Z,2792
2017-05-11T05:09:12.599Z,2480
2017-05-11T05:10:11.990Z,2512
2017-05-11T05:11:12.625Z,2920
2017-05-11T05:12:12.310Z,2812
2017-05-11T05:13:12.321Z,2716
2017-05-11T05:14:12.326Z,2920
2017-05-11T05:15:12.344Z,3200
2017-05-11T05:16:12.079Z,3160
2017-05-11T05:17:12.402Z,3372
2017-05-11T05:18:12.049Z,3580
2017-05-11T05:19:12.692Z,3568
2017-05-11T05:20:12.382Z,2992
2017-05-11T05:21:12.387Z,4096
2017-05-11T05:22:12.720Z,4508
2017-05-11T05:23:12.713Z,4448
2017-05-11T05:24:12.408Z,4440
2017-05-11T05:25:12.782Z,4520
2017-05-11T05:26:12.732Z,4780
2017-05-11T05:27:12.180Z,4932
2017-05-11T05:28:12.503Z,4984
2017-05-11T05:29:12.492Z,5048
2017-05-11T05:30:12.465Z,5044
2017-05-11T05:31:12.473Z,5104
2017-05-11T05:32:12.847Z,5108
2017-05-11T05:33:12.806Z,5100
2017-05-11T05:34:12.858Z,4972
2017-05-11T05:35:12.190Z,4904
2017-05-11T05:36:12.512Z,4880
2017-05-11T05:37:12.821Z,4788
2017-05-11T05:38:11.910Z,4600
2017-05-11T05:39:12.854Z,4360
2017-05-11T05:40:12.236Z,4316
2017-05-11T05:41:12.561Z,4484
2017-05-11T05:42:12.938Z,4464
2017-05-11T05:43:12.886Z,4812
2017-05-11T05:44:12.637Z,4888
2017-05-11T05:45:12.309Z,5096
2017-05-11T05:46:12.291Z,5308
2017-05-11T05:47:12.926Z,5676
2017-05-11T05:48:12.934Z,5804
2017-05-11T05:49:12.941Z,5776
2017-05-11T05:50:12.981Z,6504
2017-05-11T05:51:13.013Z,7156
2017-05-11T05:52:12.666Z,7348
2017-05-11T05:53:12.980Z,7796
2017-05-11T05:54:12.987Z,8136
2017-05-11T05:55:12.690Z,8288
2017-05-11T05:56:12.753Z,8032
2017-05-11T05:57:13.075Z,8616
2017-05-11T05:58:13.076Z,9488
2017-05-11T05:59:13.038Z,9748
2017-05-11T06:00:12.422Z,9672
2017-05-11T06:01:13.359Z,9120
2017-05-11T06:02:13.113Z,8924
2017-05-11T06:03:12.767Z,8540
2017-05-11T06:04:13.088Z,7336
2017-05-11T06:05:12.841Z,6616
2017-05-11T06:06:12.795Z,7276
2017-05-11T06:07:12.804Z,7612
2017-05-11T06:08:12.499Z,8040
2017-05-11T06:09:13.132Z,8452
2017-05-11T06:10:12.523Z,8908
2017-05-11T06:11:13.154Z,8324
2017-05-11T06:12:13.173Z,9208
2017-05-11T06:13:12.868Z,9368
2017-05-11T06:14:12.614Z,9780
2017-05-11T06:15:12.884Z,10060
2017-05-11T06:16:13.238Z,9636
2017-05-11T06:17:13.211Z,8760
2017-05-11T06:18:13.221Z,8796
2017-05-11T06:19:13.238Z,9312
2017-05-11T06:20:12.932Z,9680
2017-05-11T06:21:13.304Z,9460
2017-05-11T06:22:13.315Z,9332
2017-05-11T06:23:13.270Z,8848
2017-05-11T06:24:13.282Z,9412
2017-05-11T06:25:12.670Z,10304
2017-05-11T06:26:12.994Z,11064
2017-05-11T06:27:13.051Z,11272
2017-05-11T06:28:13.376Z,11456
2017-05-11T06:29:13.029Z,10884
2017-05-11T06:30:13.343Z,10056
2017-05-11T06:31:13.355Z,9652
2017-05-11T06:32:13.426Z,9624
2017-05-11T06:33:13.113Z,9868
2017-05-11T06:34:12.762Z,10432
2017-05-11T06:35:13.447Z,10368
2017-05-11T06:36:13.406Z,10432
2017-05-11T06:37:13.158Z,10112
2017-05-11T06:38:13.273Z,6496
2017-05-11T06:39:13.443Z,6956
2017-05-11T06:40:13.139Z,8580
2017-05-11T06:41:13.504Z,7816
2017-05-11T06:42:13.472Z,8772
2017-05-11T06:43:13.534Z,9728
2017-05-11T06:44:13.282Z,8928
2017-05-11T06:45:13.193Z,9536
2017-05-11T06:46:13.576Z,9152
2017-05-11T06:47:13.220Z,8928
2017-05-11T06:48:13.280Z,9536
2017-05-11T06:49:13.572Z,10080
2017-05-11T06:50:13.565Z,9216
2017-05-11T06:51:13.576Z,10656
2017-05-11T06:52:13.637Z,10784
2017-05-11T06:53:13.280Z,10848
2017-05-11T06:54:13.184Z,10944
2017-05-11T06:55:13.670Z,10784
2017-05-11T06:56:13.320Z,10880
2017-05-11T06:57:13.330Z,11264
2017-05-11T06:58:13.390Z,12192
2017-05-11T06:59:13.359Z,12384
2017-05-11T07:00:13.674Z,13120
2017-05-11T07:01:13.689Z,12928
2017-05-11T07:02:13.751Z,14656
2017-05-11T07:03:13.398Z,15552
2017-05-11T07:04:13.415Z,16736
2017-05-11T07:05:13.421Z,17472
2017-05-11T07:06:13.797Z,17568
2017-05-11T07:07:13.755Z,17472
2017-05-11T07:08:13.459Z,18336
2017-05-11T07:09:13.782Z,19680
2017-05-11T07:10:13.218Z,20704
2017-05-11T07:11:13.804Z,20512
2017-05-11T07:12:13.509Z,20160
2017-05-11T07:13:13.831Z,20096
2017-05-11T07:14:13.837Z,21600
2017-05-11T07:15:13.847Z,23136
2017-05-11T07:16:13.861Z,24192
2017-05-11T07:17:13.922Z,24064
2017-05-11T07:18:13.887Z,22944
2017-05-11T07:19:13.894Z,23712
2017-05-11T07:20:13.967Z,25280
2017-05-11T07:21:13.928Z,27264
2017-05-11T07:22:13.930Z,27584
2017-05-11T07:23:13.998Z,27584
2017-05-11T07:24:13.692Z,18272
2017-05-11T07:25:13.658Z,6084
2017-05-11T07:26:13.692Z,1360
2017-05-11T07:27:13.681Z,1184
2017-05-11T07:28:13.689Z,1072
2017-05-11T07:29:14.013Z,1004
2017-05-11T07:30:13.762Z,976
2017-05-11T07:31:13.723Z,952
2017-05-11T07:32:14.051Z,932
2017-05-11T07:33:14.160Z,920
2017-05-11T07:34:13.754Z,896
2017-05-11T07:35:13.862Z,860
2017-05-11T07:36:13.825Z,848
2017-05-11T07:37:13.500Z,844
2017-05-11T07:38:14.149Z,828
2017-05-11T07:39:13.800Z,820
2017-05-11T07:40:14.231Z,812
2017-05-11T07:41:13.509Z,800
2017-05-11T07:42:13.827Z,784
2017-05-11T07:43:14.157Z,772
2017-05-11T07:44:13.895Z,780
2017-05-11T07:45:14.196Z,776
2017-05-11T07:46:13.236Z,772
2017-05-11T07:47:14.225Z,776
2017-05-11T07:48:13.924Z,772
2017-05-11T07:49:14.194Z,764
2017-05-11T07:50:14.202Z,760
2017-05-11T07:51:13.951Z,756
2017-05-11T07:52:14.010Z,752
2017-05-11T07:53:14.235Z,744
2017-05-11T07:54:14.537Z,744
2017-05-11T07:55:14.295Z,740
2017-05-11T07:56:13.940Z,736
2017-05-11T07:57:13.953Z,732
2017-05-11T07:58:14.010Z,732
2017-05-11T07:59:14.328Z,732
2017-05-11T08:00:13.973Z,736
2017-05-11T08:01:14.291Z,732
2017-05-11T08:02:14.351Z,736
2017-05-11T08:03:14.312Z,744
2017-05-11T08:04:14.369Z,744
2017-05-11T08:05:14.419Z,744
2017-05-11T08:06:13.721Z,752
2017-05-11T08:07:13.771Z,760
2017-05-11T08:08:14.038Z,768
2017-05-11T08:09:14.356Z,780
2017-05-11T08:10:14.364Z,784
2017-05-11T08:11:14.117Z,796
2017-05-11T08:12:14.068Z,800
2017-05-11T08:13:14.078Z,808
2017-05-11T08:14:14.750Z,816
2017-05-11T08:15:14.196Z,824
2017-05-11T08:16:14.157Z,828
2017-05-11T08:17:14.421Z,828
2017-05-11T08:18:14.558Z,840
2017-05-11T08:19:14.491Z,848
2017-05-11T08:20:14.146Z,856
2017-05-11T08:21:14.516Z,872
2017-05-11T08:22:14.525Z,888
2017-05-11T08:23:14.486Z,912
2017-05-11T08:24:14.162Z,1048
2017-05-11T08:25:14.489Z,1080
2017-05-11T08:26:14.491Z,1112
2017-05-11T08:27:14.243Z,1144
2017-05-11T08:28:14.550Z,1180
2017-05-11T08:29:14.569Z,1216
2017-05-11T08:30:14.525Z,1248
2017-05-11T08:31:14.520Z,1260
2017-05-11T08:32:13.697Z,1260
2017-05-11T08:33:14.216Z,1252
2017-05-11T08:34:13.908Z,1228
2017-05-11T08:35:14.536Z,1192
2017-05-11T08:36:14.545Z,1176
2017-05-11T08:37:14.602Z,1160
2017-05-11T08:38:14.560Z,1188
2017-05-11T08:39:14.555Z,1208
2017-05-11T08:40:14.270Z,1228
2017-05-11T08:41:14.618Z,1276
2017-05-11T08:42:14.312Z,1324
2017-05-11T08:43:14.274Z,1364
2017-05-11T08:44:14.330Z,1384
2017-05-11T08:45:14.586Z,1400
2017-05-11T08:46:14.337Z,1460
2017-05-11T08:47:13.981Z,1456
2017-05-11T08:48:13.981Z,1488
2017-05-11T08:49:14.398Z,1560
2017-05-11T08:50:14.308Z,1616
2017-05-11T08:51:14.663Z,1648
2017-05-11T08:52:14.669Z,1640
2017-05-11T08:53:14.632Z,1576
2017-05-11T08:54:14.632Z,1604
2017-05-11T08:55:14.701Z,1560
2017-05-11T08:56:14.059Z,1600
2017-05-11T08:57:14.443Z,1700
2017-05-11T08:58:14.640Z,1680
2017-05-11T08:59:14.708Z,1680
2017-05-11T09:00:14.720Z,1628
2017-05-11T09:01:14.707Z,1556
2017-05-11T09:02:14.358Z,1544
2017-05-11T09:03:14.723Z,1556
2017-05-11T09:04:14.410Z,1576
2017-05-11T09:05:14.427Z,1640
2017-05-11T09:06:14.685Z,1688
2017-05-11T09:07:14.380Z,1760
2017-05-11T09:08:14.747Z,1772
2017-05-11T09:09:14.726Z,1888
2017-05-11T09:10:14.387Z,1904
2017-05-11T09:11:14.764Z,1964
2017-05-11T09:12:14.794Z,2008
2017-05-11T09:13:14.098Z,2056
2017-05-11T09:14:14.734Z,2112
2017-05-11T09:15:14.743Z,2192
2017-05-11T09:16:14.741Z,2316
2017-05-11T09:17:14.728Z,2376
2017-05-11T09:18:14.736Z,2476
2017-05-11T09:19:14.480Z,2436
2017-05-11T09:20:14.481Z,2508
2017-05-11T09:21:14.437Z,2608
2017-05-11T09:22:14.761Z,2604
2017-05-11T09:23:14.809Z,2588
2017-05-11T09:24:14.506Z,2112
2017-05-11T09:25:14.763Z,2636
2017-05-11T09:26:14.765Z,2744
2017-05-11T09:27:14.778Z,2708
2017-05-11T09:28:14.470Z,2756
2017-05-11T09:29:14.845Z,2716
2017-05-11T09:30:14.889Z,2676
2017-05-11T09:31:14.490Z,2584
2017-05-11T09:32:14.546Z,2708
2017-05-11T09:33:14.498Z,2620
2017-05-11T09:34:14.815Z,2528
2017-05-11T09:35:14.836Z,2528
2017-05-11T09:36:14.831Z,2544
2017-05-11T09:37:14.831Z,2440
2017-05-11T09:38:14.523Z,2412
2017-05-11T09:39:14.892Z,2380
2017-05-11T09:40:14.902Z,2444
2017-05-11T09:41:14.548Z,2204
2017-05-11T09:42:14.608Z,2368
2017-05-11T09:43:14.867Z,2304
2017-05-11T09:44:14.881Z,2320
2017-05-11T09:45:14.364Z,2272
2017-05-11T09:46:14.616Z,2156
2017-05-11T09:47:14.583Z,1928
2017-05-11T09:48:14.634Z,1888
2017-05-11T09:49:14.659Z,1880
2017-05-11T09:50:14.616Z,1884
2017-05-11T09:51:14.917Z,1908
2017-05-11T09:52:14.977Z,1804
2017-05-11T09:53:14.985Z,1604
2017-05-11T09:54:14.761Z,1552
2017-05-11T09:55:14.942Z,1704
2017-05-11T09:56:14.942Z,1676
2017-05-11T09:57:14.638Z,1604
2017-05-11T09:58:14.648Z,1588
2017-05-11T09:59:14.337Z,1676
2017-05-11T10:00:14.968Z,1660
2017-05-11T10:01:15.024Z,1772
2017-05-11T10:02:15.026Z,1780
2017-05-11T10:03:14.362Z,1776
2017-05-11T10:04:14.996Z,1696
2017-05-11T10:05:14.735Z,1540
2017-05-11T10:06:14.691Z,1540
2017-05-11T10:07:15.008Z,1584
2017-05-11T10:08:15.017Z,1652
2017-05-11T10:09:15.029Z,1672
2017-05-11T10:10:14.768Z,1672
2017-05-11T10:11:14.722Z,1796
2017-05-11T10:12:14.418Z,1800
2017-05-11T10:13:15.046Z,1788
2017-05-11T10:14:14.744Z,1664
2017-05-11T10:15:15.058Z,1472
2017-05-11T10:16:14.438Z,1532
2017-05-11T10:17:14.764Z,2020
2017-05-11T10:18:14.463Z,2100
2017-05-11T10:19:15.078Z,2212
2017-05-11T10:20:14.777Z,2236
2017-05-11T10:21:14.790Z,2268
2017-05-11T10:22:14.835Z,2320
2017-05-11T10:23:14.791Z,2316
2017-05-11T10:24:14.810Z,2260
2017-05-11T10:25:15.123Z,2256
2017-05-11T10:26:15.172Z,2256
2017-05-11T10:27:14.881Z,2256
2017-05-11T10:28:14.512Z,2260
2017-05-11T10:29:14.520Z,2252
2017-05-11T10:30:14.885Z,2192
2017-05-11T10:31:15.153Z,1796
2017-05-11T10:32:14.936Z,1704
2017-05-11T10:33:15.166Z,1712
2017-05-11T10:34:14.863Z,1704
2017-05-11T10:35:15.224Z,1840
2017-05-11T10:36:14.879Z,1864
2017-05-11T10:37:14.975Z,1788
2017-05-11T10:38:15.196Z,1584
2017-05-11T10:39:14.890Z,1680
2017-05-11T10:40:14.589Z,1580
2017-05-11T10:41:15.217Z,1392
2017-05-11T10:42:14.955Z,1332
2017-05-11T10:43:14.916Z,1276
2017-05-11T10:44:14.968Z,1304
2017-05-11T10:45:14.930Z,1268
2017-05-11T10:46:14.929Z,1300
2017-05-11T10:47:15.297Z,1348
2017-05-11T10:48:15.240Z,1348
2017-05-11T10:49:15.030Z,1620
2017-05-11T10:50:14.956Z,1712
2017-05-11T10:51:15.017Z,1812
2017-05-11T10:52:14.969Z,1876
2017-05-11T10:53:14.969Z,1912
2017-05-11T10:54:15.343Z,1908
2017-05-11T10:55:15.032Z,1828
2017-05-11T10:56:15.032Z,1796
2017-05-11T10:57:15.415Z,1700
2017-05-11T10:58:15.016Z,1992
2017-05-11T10:59:15.058Z,1860
2017-05-11T11:00:14.810Z,1848
2017-05-11T11:01:15.330Z,1748
2017-05-11T11:02:15.025Z,1616
2017-05-11T11:03:15.395Z,1528
2017-05-11T11:04:15.037Z,1540
2017-05-11T11:05:15.043Z,1548
2017-05-11T11:06:15.045Z,1232
2017-05-11T11:07:15.411Z,1256
2017-05-11T11:08:14.746Z,1224
2017-05-11T11:09:15.371Z,1256
2017-05-11T11:10:15.116Z,1324
2017-05-11T11:11:15.385Z,1540
2017-05-11T11:12:15.493Z,1572
2017-05-11T11:13:15.393Z,1604
2017-05-11T11:14:15.596Z,1572
2017-05-11T11:15:15.399Z,1588
2017-05-11T11:16:15.155Z,1624
2017-05-11T11:17:14.791Z,1628
2017-05-11T11:18:15.419Z,1608
2017-05-11T11:19:15.122Z,1588
2017-05-11T11:20:15.500Z,1224
2017-05-11T11:21:15.230Z,1424
2017-05-11T11:22:14.819Z,1200
2017-05-11T11:23:15.450Z,1352
2017-05-11T11:24:15.194Z,1388
2017-05-11T11:25:15.462Z,1520
2017-05-11T11:26:15.196Z,1644
2017-05-11T11:27:15.482Z,1524
2017-05-11T11:28:15.219Z,1144
2017-05-11T11:29:15.557Z,1064
2017-05-11T11:30:15.540Z,1560
2017-05-11T11:31:15.501Z,1440
2017-05-11T11:32:15.595Z,1464
2017-05-11T11:33:15.200Z,1180
2017-05-11T11:34:15.512Z,1288
2017-05-11T11:35:15.545Z,1072
2017-05-11T11:36:15.214Z,1464
2017-05-11T11:37:15.612Z,1372
2017-05-11T11:38:15.224Z,1464
2017-05-11T11:39:15.236Z,1564
2017-05-11T11:40:15.232Z,1592
2017-05-11T11:41:15.603Z,1600
2017-05-11T11:42:15.251Z,1604
2017-05-11T11:43:15.268Z,1584
2017-05-11T11:44:15.311Z,1580
2017-05-11T11:45:15.263Z,1576
2017-05-11T11:46:15.579Z,1560
2017-05-11T11:47:15.587Z,1548
2017-05-11T11:48:15.590Z,1536
2017-05-11T11:49:15.600Z,1508
2017-05-11T11:50:15.338Z,1476
2017-05-11T11:51:15.605Z,1416
2017-05-11T11:52:15.710Z,1316
2017-05-11T11:53:15.706Z,1292
2017-05-11T11:54:15.363Z,1268
2017-05-11T11:55:15.314Z,1340
2017-05-11T11:56:15.005Z,1144
2017-05-11T11:57:15.632Z,960
2017-05-11T11:58:15.694Z,856
2017-05-11T11:59:15.639Z,952
2017-05-11T12:00:15.390Z,860
2017-05-11T12:01:15.355Z,736
2017-05-11T12:02:15.354Z,720
2017-05-11T12:03:15.395Z,724
2017-05-11T12:04:15.493Z,700
2017-05-11T12:05:15.440Z,676
2017-05-11T12:06:15.676Z,664
2017-05-11T12:07:15.691Z,564
2017-05-11T12:08:15.378Z,664
2017-05-11T12:09:15.685Z,832
2017-05-11T12:10:15.116Z,948
2017-05-11T12:11:15.748Z,976
2017-05-11T12:12:15.706Z,932
2017-05-11T12:13:15.080Z,812
2017-05-11T12:14:15.715Z,892
2017-05-11T12:15:15.404Z,904
2017-05-11T12:16:15.414Z,912
2017-05-11T12:17:15.905Z,924
2017-05-11T12:18:15.733Z,948
2017-05-11T12:19:15.747Z,932
2017-05-11T12:20:15.775Z,888
2017-05-11T12:21:15.445Z,848
2017-05-11T12:22:15.684Z,832
2017-05-11T12:23:15.531Z,788
2017-05-11T12:24:15.481Z,752
2017-05-11T12:25:15.849Z,756
2017-05-11T12:26:15.792Z,812
2017-05-11T12:27:15.800Z,800
2017-05-11T12:28:15.178Z,736
2017-05-11T12:29:15.192Z,740
2017-05-11T12:30:15.823Z,764
2017-05-11T12:31:15.515Z,772
2017-05-11T12:32:15.570Z,780
2017-05-11T12:33:15.841Z,780
2017-05-11T12:34:15.847Z,804
2017-05-11T12:35:15.869Z,848
2017-05-11T12:36:15.599Z,900
2017-05-11T12:37:15.299Z,968
2017-05-11T12:38:15.253Z,1064
2017-05-11T12:39:15.573Z,1180
2017-05-11T12:40:15.897Z,1108
2017-05-11T12:41:15.900Z,1108
2017-05-11T12:42:15.914Z,1048
2017-05-11T12:43:15.294Z,1000
2017-05-11T12:44:15.609Z,976
2017-05-11T12:45:15.999Z,936
2017-05-11T12:46:15.624Z,872
2017-05-11T12:47:15.963Z,820
2017-05-11T12:48:15.010Z,848
2017-05-11T12:49:15.953Z,776
2017-05-11T12:50:15.964Z,768
2017-05-11T12:51:15.658Z,792
2017-05-11T12:52:15.668Z,812
2017-05-11T12:53:15.986Z,836
2017-05-11T12:54:15.990Z,840
2017-05-11T12:55:16.055Z,876
2017-05-11T12:56:16.062Z,1024
2017-05-11T12:57:16.014Z,1084
2017-05-11T12:58:15.706Z,1124
2017-05-11T12:59:15.403Z,1148
2017-05-11T13:00:15.718Z,1180
2017-05-11T13:01:15.729Z,1212
2017-05-11T13:02:16.051Z,1236
2017-05-11T13:03:16.057Z,1252
2017-05-11T13:04:16.062Z,1276
2017-05-11T13:05:16.065Z,1180
2017-05-11T13:06:15.763Z,1180
2017-05-11T13:07:15.776Z,1224
2017-05-11T13:08:15.781Z,1240
2017-05-11T13:09:16.107Z,1112
2017-05-11T13:10:16.109Z,1112
2017-05-11T13:11:16.111Z,1100
2017-05-11T13:12:15.810Z,1080
2017-05-11T13:13:16.188Z,1104
2017-05-11T13:14:15.512Z,1080
2017-05-11T13:15:15.830Z,1052
2017-05-11T13:16:15.530Z,1048
2017-05-11T13:17:15.538Z,1044
2017-05-11T13:18:16.307Z,1024
2017-05-11T13:19:15.552Z,1028
2017-05-11T13:20:16.187Z,1092
2017-05-11T13:21:16.242Z,1088
2017-05-11T13:22:15.890Z,1112
2017-05-11T13:23:15.592Z,1204
2017-05-11T13:24:15.585Z,1236
2017-05-11T13:25:15.927Z,1164
2017-05-11T13:26:16.283Z,1164
2017-05-11T13:27:15.923Z,1036
2017-05-11T13:28:15.624Z,1096
2017-05-11T13:29:15.674Z,1020
2017-05-11T13:30:15.945Z,968
2017-05-11T13:31:16.006Z,928
2017-05-11T13:32:15.965Z,924
2017-05-11T13:33:16.028Z,916
2017-05-11T13:34:15.661Z,880
2017-05-11T13:35:16.296Z,808
2017-05-11T13:36:16.701Z,736
2017-05-11T13:37:15.996Z,728
2017-05-11T13:38:16.052Z,776
2017-05-11T13:39:16.061Z,792
2017-05-11T13:40:16.331Z,784
2017-05-11T13:41:16.388Z,788
2017-05-11T13:42:16.031Z,768
2017-05-11T13:43:16.654Z,772
2017-05-11T13:44:15.741Z,828
2017-05-11T13:45:16.058Z,844
2017-05-11T13:46:16.068Z,836
2017-05-11T13:47:16.391Z,848
2017-05-11T13:48:16.084Z,800